Time;durP1;ratioP1;P1;durP2;ratioP2;P2;SDS_P1;SDS_P2;PMS_P1;PMS_P2;Temp;Humidity;BMP_temperature;BMP_pressure;BME280_temperature;BME280_humidity;BME280_pressure;Samples;Min_cycle;Max_cycle;Signal;HPM_P1;HPM_P2
2023/09/10 01:07:25;;;;;;;;;;;;;;;20.72;68.20;99975.16;1087005;54;19950;-79
2023/09/10 01:08:26;;;;;;;;;;;;;;;20.73;68.04;99986.88;1087019;47;19946;-79
2023/09/10 01:09:29;;;;;;;;;;;;;;;20.73;67.60;99985.00;1086902;47;19950;-78
2023/09/10 01:10:36;;;;;;;;;;;;;;;20.70;68.38;99995.44;1086935;54;19951;-79
2023/09/10 01:11:42;;;;;;;;;;;;;;;20.68;68.67;99981.22;1087369;47;19955;-78
2023/09/10 01:12:49;;;;;;;;;;;;;;;20.62;69.17;99984.81;1087562;47;19973;-78
2023/09/10 01:13:56;;;;;;;;;;;;;;;20.52;69.83;99982.50;1087357;54;20021;-79
2023/09/10 01:15:00;;;;;;;;;;;;;;;20.56;69.20;99984.59;1087322;54;19967;-78
2023/09/10 01:16:06;;;;;;;;;;;;;;;20.62;68.51;99991.06;1087368;47;19949;-78
2023/09/10 01:17:10;;;;;;;;;;;;;;;20.60;68.97;99985.00;1087865;39;20163;-79
2023/09/10 01:18:18;;;;;;;;;;;;;;;20.42;70.69;99991.91;1087551;47;19942;-77
2023/09/10 01:19:48;;;;;;;;;;;;;;;;;;;;;
2023/09/10 01:21:13;;;;;;;;;;;;;;;20.31;71.15;99984.41;1087793;47;19942;-81
2023/09/10 01:22:45;;;;;;;;;;;;;;;20.38;70.37;99979.84;1087574;47;19942;-82
2023/09/10 01:24:11;;;;;;;;;;;;;;;20.38;70.30;99981.69;1087913;47;20299;-82
2023/09/10 01:25:31;;;;;;;;;;;;;;;20.40;69.50;99983.16;1088422;39;20438;-83
2023/09/10 01:27:08;;;;;;;;;;;;;;;20.45;69.17;99981.69;1087932;54;19939;-84
2023/09/10 01:28:09;;;;;;;;;;;;;;;20.37;69.82;99982.75;1088669;39;20336;-80
2023/09/10 01:29:15;;;;;;;;;;;;;;;20.37;69.82;99977.31;1087531;54;19967;-78
2023/09/10 01:30:16;;;;;;;;;;;;;;;20.38;69.48;99977.13;1087378;54;19943;-79
2023/09/10 01:31:44;;;;;;;;;;;;;;;20.42;69.36;99988.38;1087603;54;19974;-80
2023/09/10 02:31:42;;;;;;;;;;;;;;;19.97;71.06;99991.75;1088117;46;19926;-80
2023/09/10 02:34:32;;;;;;;;;;;;;;;20.02;70.66;99983.84;1088046;46;19931;-81
2023/09/10 02:38:21;;;;;;;;;;;;;;;20.03;70.21;99988.19;1087443;47;19943;-80
2023/09/10 02:39:22;;;;;;;;;;;;;;;20.01;70.02;99990.28;1087186;54;20014;-81
2023/09/10 02:41:48;;;;;;;;;;;;;;;19.96;70.27;99992.78;1087685;54;19951;-80
2023/09/10 02:42:49;;;;;;;;;;;;;;;19.96;70.30;99984.66;1088185;54;19942;-79
2023/09/10 02:44:07;;;;;;;;;;;;;;;19.95;70.29;99983.81;1088254;54;19929;-81
2023/09/10 02:45:08;;;;;;;;;;;;;;;19.94;70.26;99978.59;1088054;54;19954;-80
2023/09/10 02:47:42;;;;;;;;;;;;;;;19.92;70.81;99978.81;1088033;47;19953;-82
2023/09/10 02:48:55;;;;;;;;;;;;;;;19.91;70.30;99984.44;1087822;54;19934;-80
2023/09/10 02:49:59;;;;;;;;;;;;;;;19.88;70.88;99983.00;1087509;54;19990;-82
2023/09/10 02:51:08;;;;;;;;;;;;;;;19.87;70.71;99984.03;1087275;47;19955;-82
2023/09/10 02:52:24;;;;;;;;;;;;;;;19.86;70.84;99982.34;1087018;54;19962;-81
2023/09/10 02:53:41;;;;;;;;;;;;;;;19.86;70.93;99986.94;1086903;54;19946;-80
2023/09/10 02:54:46;;;;;;;;;;;;;;;19.84;70.97;99984.41;1087916;54;19927;-81
2023/09/10 02:55:47;;;;;;;;;;;;;;;19.74;71.50;99994.81;1088500;54;19939;-81
2023/09/10 02:56:59;;;;;;;;;;;;;;;19.68;72.19;99987.53;1088445;54;19934;-83
2023/09/10 02:58:00;;;;;;;;;;;;;;;19.63;72.30;99994.38;1088488;46;19994;-81
2023/09/10 02:59:03;;;;;;;;;;;;;;;19.63;72.19;99997.09;1088323;54;19947;-82
2023/09/10 03:38:18;;;;;;;;;;;;;;;18.94;74.29;99990.81;1087813;54;19931;-84
2023/09/10 03:39:24;;;;;;;;;;;;;;;18.98;73.78;99991.28;1088547;54;19987;-82
2023/09/10 03:40:34;;;;;;;;;;;;;;;18.99;74.08;99990.22;1088358;46;19970;-83
2023/09/10 03:41:54;;;;;;;;;;;;;;;19.01;73.88;99989.00;1088162;54;19950;-82
2023/09/10 03:43:02;;;;;;;;;;;;;;;19.04;73.85;99986.91;1088251;47;19930;-81
2023/09/10 03:44:03;;;;;;;;;;;;;;;18.98;74.25;99986.69;1088157;47;19955;-82
2023/09/10 03:45:16;;;;;;;;;;;;;;;18.97;74.45;99978.75;1088046;54;19926;-81
2023/09/10 03:46:48;;;;;;;;;;;;;;;18.97;74.07;99985.00;1088270;46;19938;-82
2023/09/10 03:50:13;;;;;;;;;;;;;;;;;;;;;
2023/09/10 04:12:07;;;;;;;;;;;;;;;18.39;78.21;99993.41;1087493;54;19973;-80
2023/09/10 04:13:08;;;;;;;;;;;;;;;18.44;77.08;99993.63;1087466;47;20008;-79
2023/09/10 04:17:08;;;;;;;;;;;;;;;18.55;76.12;99998.50;1087616;47;19942;-79
2023/09/10 04:18:14;;;;;;;;;;;;;;;18.57;76.58;99992.88;1087654;54;20027;-79
2023/09/10 04:19:17;;;;;;;;;;;;;;;18.46;77.54;100002.41;1087179;47;19967;-79
2023/09/10 04:20:19;;;;;;;;;;;;;;;18.38;77.86;100003.38;1087521;47;20002;-80
2023/09/10 04:21:23;;;;;;;;;;;;;;;18.37;78.05;100000.88;1087534;47;19966;-78
2023/09/10 04:22:23;;;;;;;;;;;;;;;18.35;77.91;100003.78;1087396;47;19954;-78
2023/09/10 04:23:27;;;;;;;;;;;;;;;18.36;78.05;100004.59;1087538;47;19942;-78
2023/09/10 04:24:49;;;;;;;;;;;;;;;18.35;78.32;100002.94;1087621;47;19943;-80
2023/09/10 04:27:21;;;;;;;;;;;;;;;18.32;78.36;100003.34;1087903;47;19962;-80
2023/09/10 04:28:27;;;;;;;;;;;;;;;18.33;77.77;100010.41;1087868;47;19943;-79
2023/09/10 04:29:28;;;;;;;;;;;;;;;18.37;77.42;100009.81;1087504;47;19965;-79
2023/09/10 04:30:32;;;;;;;;;;;;;;;18.40;76.81;100005.91;1087666;47;19943;-79
2023/09/10 04:31:36;;;;;;;;;;;;;;;18.44;76.43;100011.75;1087629;47;19942;-80
2023/09/10 04:32:40;;;;;;;;;;;;;;;18.45;76.33;100011.53;1087639;47;19942;-79
2023/09/10 04:33:42;;;;;;;;;;;;;;;18.48;76.29;100013.00;1087860;47;19995;-80
2023/09/10 04:34:46;;;;;;;;;;;;;;;18.49;75.89;100014.69;1087680;47;19949;-79
2023/09/10 04:35:48;;;;;;;;;;;;;;;18.46;76.39;100013.22;1087482;54;19973;-79
2023/09/10 04:36:51;;;;;;;;;;;;;;;18.31;77.90;100021.44;1087628;47;19949;-78
2023/09/10 04:37:52;;;;;;;;;;;;;;;18.27;77.69;100022.03;1087722;47;19965;-79
2023/09/10 04:38:58;;;;;;;;;;;;;;;18.27;77.83;100017.47;1087945;54;19942;-80
2023/09/10 04:40:00;;;;;;;;;;;;;;;18.23;77.77;100022.41;1087822;54;19950;-80
2023/09/10 04:41:19;;;;;;;;;;;;;;;18.20;78.15;100032.78;1087822;47;19973;-80
2023/09/10 04:42:35;;;;;;;;;;;;;;;18.19;77.92;100026.53;1087815;47;19969;-80
2023/09/10 04:43:41;;;;;;;;;;;;;;;18.21;77.81;100034.47;1087837;54;19949;-79
2023/09/10 04:44:47;;;;;;;;;;;;;;;18.15;78.26;100033.38;1087888;54;19942;-79
2023/09/10 04:45:54;;;;;;;;;;;;;;;18.03;78.75;100026.81;1087839;47;19943;-80
2023/09/10 04:46:55;;;;;;;;;;;;;;;17.94;78.84;100028.78;1087792;54;19986;-79
2023/09/10 04:48:19;;;;;;;;;;;;;;;17.98;78.56;100029.25;1087901;54;19943;-80
2023/09/10 04:49:25;;;;;;;;;;;;;;;17.97;78.68;100028.44;1087667;47;19943;-80
2023/09/10 04:50:33;;;;;;;;;;;;;;;17.98;78.66;100026.56;1087626;47;19950;-79
2023/09/10 04:51:34;;;;;;;;;;;;;;;18.04;78.25;100033.91;1087632;54;19998;-80
2023/09/10 04:52:38;;;;;;;;;;;;;;;18.02;78.63;100031.38;1087844;47;19943;-79
2023/09/10 04:53:44;;;;;;;;;;;;;;;18.07;77.78;100034.34;1087810;54;19966;-79
2023/09/10 04:57:48;;;;;;;;;;;;;;;17.93;79.15;100041.47;1087907;47;19990;-79
2023/09/10 04:59:16;;;;;;;;;;;;;;;17.92;79.31;100037.09;1087745;54;19942;-81
2023/09/10 05:00:22;;;;;;;;;;;;;;;17.92;78.99;100038.94;1087112;54;19947;-81
2023/09/10 05:01:23;;;;;;;;;;;;;;;17.94;78.44;100036.91;1087173;47;19957;-80
2023/09/10 05:05:37;;;;;;;;;;;;;;;18.01;78.42;100048.63;1087035;54;19957;-81
2023/09/10 05:06:39;;;;;;;;;;;;;;;17.98;78.27;100045.50;1087001;47;20002;-81
2023/09/10 05:07:42;;;;;;;;;;;;;;;18.02;77.74;100044.91;1087267;47;19998;-81
2023/09/10 05:12:40;;;;;;;;;;;;;;;17.82;79.41;100060.06;1073453;54;21259;-82
2023/09/10 05:13:49;;;;;;;;;;;;;;;17.77;79.58;100060.63;1088253;54;19975;-80
2023/09/10 05:14:52;;;;;;;;;;;;;;;17.86;78.83;100053.25;1091368;39;20547;-82
2023/09/10 05:42:13;;;;;;;;;;;;;;;18.03;77.45;100053.88;1087690;54;19966;-79
2023/09/10 05:43:25;;;;;;;;;;;;;;;18.06;77.23;100057.03;1087895;54;19950;-82
2023/09/10 05:44:28;;;;;;;;;;;;;;;18.11;76.87;100056.44;1086743;54;19945;-78
2023/09/10 05:45:31;;;;;;;;;;;;;;;18.09;76.55;100055.78;1086338;47;19942;-78
2023/09/10 05:46:34;;;;;;;;;;;;;;;18.09;76.77;100053.09;1085125;54;19987;-78
2023/09/10 05:47:35;;;;;;;;;;;;;;;18.07;77.28;100056.00;1085432;47;19950;-77
2023/09/10 05:48:51;;;;;;;;;;;;;;;18.09;77.12;100053.09;1086513;54;19977;-78
2023/09/10 05:49:54;;;;;;;;;;;;;;;18.04;77.38;100056.38;1083875;47;19947;-78
2023/09/10 05:51:03;;;;;;;;;;;;;;;18.08;77.22;100057.69;1084218;54;19954;-77
2023/09/10 05:52:08;;;;;;;;;;;;;;;18.08;76.82;100052.28;1084557;54;19939;-79
2023/09/10 05:53:24;;;;;;;;;;;;;;;18.14;76.91;100060.63;1086804;54;20010;-77
2023/09/10 05:54:27;;;;;;;;;;;;;;;18.11;76.96;100059.16;1086356;54;20002;-78
2023/09/10 05:55:29;;;;;;;;;;;;;;;18.09;77.10;100056.63;1085067;54;19967;-78
2023/09/10 05:56:32;;;;;;;;;;;;;;;18.11;77.07;100056.44;1083293;54;19951;-78
2023/09/10 05:57:37;;;;;;;;;;;;;;;18.14;76.79;100060.63;1083685;54;19946;-79
2023/09/10 05:58:44;;;;;;;;;;;;;;;18.18;76.26;100059.22;1085658;47;19943;-79
2023/09/10 05:59:44;;;;;;;;;;;;;;;18.20;76.46;100055.28;1085605;54;20002;-79
2023/09/10 06:00:48;;;;;;;;;;;;;;;18.17;76.91;100057.53;1084546;47;19950;-80
2023/09/10 06:01:48;;;;;;;;;;;;;;;18.16;76.55;100062.09;1086449;47;19979;-79
2023/09/10 06:02:56;;;;;;;;;;;;;;;18.20;76.58;100059.84;1086734;47;19950;-78
2023/09/10 06:03:59;;;;;;;;;;;;;;;18.27;76.33;100062.59;1085644;47;19954;-78
2023/09/10 06:05:02;;;;;;;;;;;;;;;18.29;76.24;100065.97;1086660;54;20855;-79
2023/09/10 06:06:04;;;;;;;;;;;;;;;18.23;76.31;100060.28;1087175;39;20618;-78
2023/09/10 06:07:11;;;;;;;;;;;;;;;18.28;76.25;100056.16;1086809;54;19957;-77
2023/09/10 06:08:12;;;;;;;;;;;;;;;18.32;76.14;100063.69;1086432;54;19950;-78
2023/09/10 06:09:15;;;;;;;;;;;;;;;18.36;76.36;100064.13;1085929;47;20067;-79
2023/09/10 06:10:16;;;;;;;;;;;;;;;18.29;76.44;100058.66;1086235;47;19947;-80
2023/09/10 06:11:19;;;;;;;;;;;;;;;18.31;76.17;100062.03;1086298;47;20852;-79
2023/09/10 06:12:23;;;;;;;;;;;;;;;18.37;76.01;100068.53;1086455;54;19951;-81
2023/09/10 06:13:30;;;;;;;;;;;;;;;18.42;75.68;100067.94;1086944;47;20073;-79
2023/09/10 06:14:34;;;;;;;;;;;;;;;18.41;75.87;100067.13;1086144;54;19950;-82
2023/09/10 06:15:37;;;;;;;;;;;;;;;18.47;75.36;100071.72;1085029;54;19950;-78
2023/09/10 06:16:38;;;;;;;;;;;;;;;18.37;75.73;100066.63;1084363;54;19947;-79
2023/09/10 06:17:42;;;;;;;;;;;;;;;18.34;76.48;100066.19;1082735;47;19966;-76
2023/09/10 06:18:50;;;;;;;;;;;;;;;18.35;76.47;100070.56;1084125;47;19951;-81
2023/09/10 06:20:11;;;;;;;;;;;;;;;18.22;76.33;100071.31;1087106;47;19942;-81
2023/09/10 06:21:21;;;;;;;;;;;;;;;18.28;76.41;100072.41;1084301;47;20436;-77
2023/09/10 06:22:24;;;;;;;;;;;;;;;18.30;76.37;100068.47;1082880;54;19999;-77
2023/09/10 06:23:28;;;;;;;;;;;;;;;18.35;76.44;100067.88;1083106;54;19950;-79
2023/09/10 06:24:31;;;;;;;;;;;;;;;18.38;76.32;100075.59;1083113;47;19957;-77
2023/09/10 06:25:32;;;;;;;;;;;;;;;18.40;76.32;100070.84;1081288;47;19950;-76
2023/09/10 06:26:41;;;;;;;;;;;;;;;18.36;76.19;100073.13;1083171;47;20465;-81
2023/09/10 06:27:42;;;;;;;;;;;;;;;18.37;76.49;100071.22;1084360;54;20067;-78
2023/09/10 06:28:45;;;;;;;;;;;;;;;18.38;76.55;100067.50;1083482;47;19976;-78
2023/09/10 06:29:49;;;;;;;;;;;;;;;18.47;75.71;100068.16;1081838;54;19972;-78
2023/09/10 06:30:52;;;;;;;;;;;;;;;18.57;75.44;100068.66;1082762;47;19946;-78
2023/09/10 06:31:52;;;;;;;;;;;;;;;18.62;75.18;100070.78;1083573;47;20531;-77
2023/09/10 06:32:56;;;;;;;;;;;;;;;18.68;74.88;100070.00;1082328;54;19950;-78
2023/09/10 06:33:57;;;;;;;;;;;;;;;18.76;74.77;100058.19;1082219;54;19947;-77
2023/09/10 06:35:00;;;;;;;;;;;;;;;18.74;74.79;100066.50;1083664;54;19957;-77
2023/09/10 06:36:02;;;;;;;;;;;;;;;18.80;74.64;100064.88;1084080;47;19947;-78
2023/09/10 06:37:06;;;;;;;;;;;;;;;18.85;74.53;100067.81;1084051;54;19994;-78
2023/09/10 06:38:06;;;;;;;;;;;;;;;18.85;74.34;100056.97;1084978;54;19964;-79
2023/09/10 06:39:10;;;;;;;;;;;;;;;18.86;74.13;100064.94;1084988;47;19947;-79
2023/09/10 06:40:13;;;;;;;;;;;;;;;18.94;74.20;100065.81;1085222;47;20034;-81
2023/09/10 06:41:18;;;;;;;;;;;;;;;18.99;73.92;100069.63;1087200;54;19949;-78
2023/09/10 06:42:20;;;;;;;;;;;;;;;19.02;73.62;100071.06;1087394;54;20058;-78
2023/09/10 06:46:15;;;;;;;;;;;;;;;19.13;73.81;100064.25;1084622;47;19950;-77
2023/09/10 06:47:27;;;;;;;;;;;;;;;19.18;73.36;100065.31;1084428;47;19946;-81
2023/09/10 06:48:30;;;;;;;;;;;;;;;19.26;72.99;100074.34;1087533;46;19942;-79
2023/09/10 06:49:54;;;;;;;;;;;;;;;19.16;73.34;100064.72;1086879;46;20046;-78
2023/09/10 06:51:00;;;;;;;;;;;;;;;19.10;73.84;100070.09;1087563;54;19991;-82
2023/09/10 06:52:11;;;;;;;;;;;;;;;19.11;74.11;100071.75;1087912;47;19975;-79
2023/09/10 06:53:31;;;;;;;;;;;;;;;19.17;73.65;100071.81;1087692;54;19964;-80
2023/09/10 06:54:32;;;;;;;;;;;;;;;19.26;73.54;100072.47;1087355;46;19981;-78
2023/09/10 06:55:35;;;;;;;;;;;;;;;19.29;73.22;100074.78;1088079;54;19966;-82
2023/09/10 06:58:14;;;;;;;;;;;;;;;19.29;73.42;100077.47;1086913;47;19935;-78
2023/09/10 06:59:17;;;;;;;;;;;;;;;19.38;73.14;100083.56;1087520;47;19967;-81
2023/09/10 07:00:23;;;;;;;;;;;;;;;19.39;72.76;100082.50;1087183;54;19953;-79
2023/09/10 07:01:23;;;;;;;;;;;;;;;19.46;72.76;100072.53;1086776;54;20013;-81
2023/09/10 07:02:27;;;;;;;;;;;;;;;19.52;72.52;100072.78;1087059;54;19951;-79
2023/09/10 07:03:43;;;;;;;;;;;;;;;19.56;72.34;100074.03;1086561;47;19958;-82
2023/09/10 07:04:47;;;;;;;;;;;;;;;19.61;71.88;100069.66;1086972;54;19949;-77
2023/09/10 07:05:48;;;;;;;;;;;;;;;19.66;72.02;100071.75;1083962;47;19946;-77
2023/09/10 07:06:51;;;;;;;;;;;;;;;19.71;71.58;100077.44;1083441;47;19953;-80
2023/09/10 07:07:53;;;;;;;;;;;;;;;19.61;71.84;100071.56;1085070;47;20589;-77
2023/09/10 07:08:56;;;;;;;;;;;;;;;19.66;71.93;100077.19;1084183;54;20471;-80
2023/09/10 07:13:21;;;;;;;;;;;;;;;19.96;71.07;100079.59;1084119;39;20323;-77
2023/09/10 07:14:22;;;;;;;;;;;;;;;20.02;70.87;100073.38;1084417;47;19990;-79
2023/09/10 07:15:27;;;;;;;;;;;;;;;20.08;70.84;100072.53;1083736;39;20400;-79
2023/09/10 07:16:45;;;;;;;;;;;;;;;20.13;70.78;100074.63;1086575;54;19990;-82
2023/09/10 07:19:34;;;;;;;;;;;;;;;20.23;70.54;100079.63;1086734;46;19949;-81
2023/09/10 07:24:09;;;;;;;;;;;;;;;20.45;69.50;100072.09;1087162;54;20533;-80
2023/09/10 07:25:10;;;;;;;;;;;;;;;20.53;69.58;100073.78;1086908;47;19935;-80
2023/09/10 07:27:53;;;;;;;;;;;;;;;20.70;69.23;100079.63;1086822;46;19970;-79
2023/09/10 07:28:54;;;;;;;;;;;;;;;20.77;68.81;100074.22;1086953;46;19968;-83
2023/09/10 07:33:11;;;;;;;;;;;;;;;20.85;68.55;100077.53;1086036;47;19966;-81
2023/09/10 07:34:18;;;;;;;;;;;;;;;20.91;68.32;100072.31;1087858;46;20010;-85
2023/09/10 07:35:22;;;;;;;;;;;;;;;20.99;67.98;100077.53;1086567;54;19950;-80
2023/09/10 07:36:22;;;;;;;;;;;;;;;21.04;68.24;100080.41;1084854;54;20012;-79
2023/09/10 07:37:29;;;;;;;;;;;;;;;21.12;68.00;100077.47;1087202;54;19943;-79
2023/09/10 07:38:29;;;;;;;;;;;;;;;21.16;67.29;100077.91;1086757;54;20006;-80
2023/09/10 07:39:33;;;;;;;;;;;;;;;21.22;67.59;100077.03;1086482;54;19957;-78
2023/09/10 07:40:33;;;;;;;;;;;;;;;21.30;67.32;100079.50;1086448;47;19950;-80
2023/09/10 07:41:37;;;;;;;;;;;;;;;21.38;66.96;100080.31;1085912;54;19978;-80
2023/09/10 07:42:38;;;;;;;;;;;;;;;21.41;66.60;100074.44;1086635;47;19947;-81
2023/09/10 07:43:50;;;;;;;;;;;;;;;21.51;66.75;100075.66;1087380;47;19953;-80
2023/09/10 07:44:53;;;;;;;;;;;;;;;21.61;66.63;100075.22;1086994;47;19942;-82
2023/09/10 07:45:57;;;;;;;;;;;;;;;21.63;65.92;100077.72;1086277;54;19939;-79
2023/09/10 07:46:58;;;;;;;;;;;;;;;21.72;66.13;100076.41;1085703;54;19947;-79
2023/09/10 07:48:01;;;;;;;;;;;;;;;21.76;65.87;100076.81;1084782;47;20034;-79
2023/09/10 07:49:06;;;;;;;;;;;;;;;21.86;65.45;100077.16;1086286;39;20547;-79
2023/09/10 07:50:11;;;;;;;;;;;;;;;21.99;65.13;100075.44;1087026;54;19967;-81
2023/09/10 07:51:12;;;;;;;;;;;;;;;22.06;63.99;100076.22;1088015;47;20016;-83
2023/09/10 07:52:18;;;;;;;;;;;;;;;22.08;64.01;100076.84;1087988;46;19950;-81
2023/09/10 07:53:34;;;;;;;;;;;;;;;22.13;64.09;100080.56;1087472;46;19955;-81
2023/09/10 07:56:14;;;;;;;;;;;;;;;22.51;64.19;100076.09;1087342;47;19942;-80
2023/09/10 07:58:56;;;;;;;;;;;;;;;22.92;62.97;100078.44;1086387;47;19950;-78
2023/09/10 07:59:57;;;;;;;;;;;;;;;23.06;62.42;100071.78;1086181;47;19954;-79
2023/09/10 08:01:03;;;;;;;;;;;;;;;23.23;62.01;100076.66;1085857;47;19958;-77
2023/09/10 08:02:03;;;;;;;;;;;;;;;23.39;61.56;100073.31;1083549;47;19995;-78
2023/09/10 08:03:07;;;;;;;;;;;;;;;23.52;61.12;100073.13;1085127;54;19946;-80
2023/09/10 08:04:11;;;;;;;;;;;;;;;23.59;60.99;100077.69;1084290;47;19947;-80
2023/09/10 08:05:15;;;;;;;;;;;;;;;23.69;60.49;100072.50;1085798;47;19955;-80
2023/09/10 08:06:16;;;;;;;;;;;;;;;23.81;60.48;100069.81;1085947;46;19946;-80
2023/09/10 08:07:19;;;;;;;;;;;;;;;23.82;59.93;100075.03;1085781;54;20005;-82
2023/09/10 08:08:47;;;;;;;;;;;;;;;24.00;59.54;100073.34;1084803;54;19947;-79
2023/09/10 08:09:51;;;;;;;;;;;;;;;24.21;58.69;100073.88;1085672;47;19950;-80
2023/09/10 08:10:54;;;;;;;;;;;;;;;24.31;58.67;100074.13;1084660;47;19958;-82
2023/09/10 08:12:07;;;;;;;;;;;;;;;24.44;57.82;100078.53;1085966;54;19946;-80
2023/09/10 08:13:08;;;;;;;;;;;;;;;24.60;58.23;100077.00;1085432;46;19974;-81
2023/09/10 08:14:13;;;;;;;;;;;;;;;24.72;57.85;100080.59;1085872;31;20479;-79
2023/09/10 08:15:14;;;;;;;;;;;;;;;24.81;57.58;100075.59;1084068;54;20043;-79
2023/09/10 08:16:17;;;;;;;;;;;;;;;24.90;57.27;100079.63;1085736;47;19950;-78
2023/09/10 08:17:21;;;;;;;;;;;;;;;25.02;57.03;100082.38;1084243;54;19954;-79
2023/09/10 08:18:34;;;;;;;;;;;;;;;24.97;56.88;100076.78;1085188;47;19994;-79
2023/09/10 08:19:38;;;;;;;;;;;;;;;25.07;56.51;100077.00;1084048;47;19975;-80
2023/09/10 08:20:42;;;;;;;;;;;;;;;25.15;56.39;100080.44;1085790;54;19947;-80
2023/09/10 08:21:43;;;;;;;;;;;;;;;25.28;56.03;100066.50;1084823;47;19977;-80
2023/09/10 08:22:46;;;;;;;;;;;;;;;25.40;55.19;100063.75;1083255;54;19946;-81
2023/09/10 08:23:47;;;;;;;;;;;;;;;25.32;55.29;100078.59;1084445;54;19946;-82
2023/09/10 08:24:59;;;;;;;;;;;;;;;25.23;55.44;100078.16;1085318;54;19951;-79
2023/09/10 08:25:59;;;;;;;;;;;;;;;25.51;54.46;100070.25;1084994;47;20523;-80
2023/09/10 08:27:04;;;;;;;;;;;;;;;25.74;54.64;100063.03;1086711;54;19976;-80
2023/09/10 08:28:08;;;;;;;;;;;;;;;25.66;54.28;100069.72;1086727;47;19950;-80
2023/09/10 08:29:14;;;;;;;;;;;;;;;25.70;54.39;100070.91;1086702;54;19997;-82
2023/09/10 08:30:14;;;;;;;;;;;;;;;25.81;54.12;100071.91;1087383;54;19942;-82
2023/09/10 08:31:18;;;;;;;;;;;;;;;25.61;53.97;100064.97;1086650;47;19974;-80
2023/09/10 08:32:49;;;;;;;;;;;;;;;25.62;53.86;100066.63;1087329;54;20498;-82
2023/09/10 08:33:52;;;;;;;;;;;;;;;25.58;54.08;100072.84;1086977;54;19946;-80
2023/09/10 08:35:00;;;;;;;;;;;;;;;25.44;54.42;100070.41;1088293;39;20560;-81
2023/09/10 08:36:06;;;;;;;;;;;;;;;25.76;53.68;100064.44;1087992;54;20687;-81
2023/09/10 08:37:11;;;;;;;;;;;;;;;26.03;53.08;100061.06;1087953;54;19943;-80
2023/09/10 08:38:15;;;;;;;;;;;;;;;26.15;52.97;100061.88;1087872;54;19943;-81
2023/09/10 08:39:16;;;;;;;;;;;;;;;26.36;52.83;100073.19;1087990;54;19943;-81
2023/09/10 08:40:19;;;;;;;;;;;;;;;26.48;51.50;100062.13;1087870;54;19946;-81
2023/09/10 08:41:24;;;;;;;;;;;;;;;26.63;51.31;100058.78;1087668;54;19942;-80
2023/09/10 08:42:31;;;;;;;;;;;;;;;26.20;51.07;100066.59;1087207;47;19950;-81
2023/09/10 08:43:36;;;;;;;;;;;;;;;26.13;51.48;100065.94;1087160;54;19950;-81
2023/09/10 08:44:41;;;;;;;;;;;;;;;26.01;52.01;100064.06;1087057;54;19957;-79
2023/09/10 08:45:42;;;;;;;;;;;;;;;26.25;52.18;100063.97;1086133;47;20044;-80
2023/09/10 08:46:47;;;;;;;;;;;;;;;26.54;51.80;100063.88;1086396;54;19950;-80
2023/09/10 08:47:48;;;;;;;;;;;;;;;26.56;51.36;100069.91;1086138;54;20002;-80
2023/09/10 08:48:53;;;;;;;;;;;;;;;26.75;50.79;100067.75;1086900;54;19957;-82
2023/09/10 08:50:02;;;;;;;;;;;;;;;26.76;50.12;100063.09;1087448;54;19974;-81
2023/09/10 08:51:05;;;;;;;;;;;;;;;26.83;50.32;100071.97;1086856;39;20596;-80
2023/09/10 08:52:06;;;;;;;;;;;;;;;27.09;50.23;100062.19;1086319;47;19953;-81
2023/09/10 08:53:13;;;;;;;;;;;;;;;26.90;49.54;100060.84;1085793;47;19975;-80
2023/09/10 08:54:15;;;;;;;;;;;;;;;26.59;50.13;100063.94;1086453;54;19950;-81
2023/09/10 08:55:18;;;;;;;;;;;;;;;26.73;49.98;100066.34;1086490;54;19978;-80
2023/09/10 08:56:19;;;;;;;;;;;;;;;26.49;50.57;100060.22;1086221;47;19942;-81
2023/09/10 08:57:23;;;;;;;;;;;;;;;26.77;50.57;100064.78;1086549;47;19987;-81
2023/09/10 08:58:25;;;;;;;;;;;;;;;26.91;49.97;100074.31;1086612;47;19951;-81
2023/09/10 08:59:28;;;;;;;;;;;;;;;27.14;49.81;100063.34;1086658;54;19947;-81
2023/09/10 09:00:30;;;;;;;;;;;;;;;27.27;49.17;100064.88;1086326;54;19950;-80
2023/09/10 09:01:33;;;;;;;;;;;;;;;26.99;48.65;100062.06;1086646;47;19954;-84
2023/09/10 09:02:36;;;;;;;;;;;;;;;27.15;49.26;100059.53;1087252;54;19950;-82
2023/09/10 09:03:40;;;;;;;;;;;;;;;27.40;48.81;100059.84;1087553;54;19974;-82
2023/09/10 09:04:40;;;;;;;;;;;;;;;27.49;48.68;100054.72;1087008;54;20074;-82
2023/09/10 09:05:48;;;;;;;;;;;;;;;27.61;48.21;100062.84;1087775;39;20640;-83
2023/09/10 09:06:52;;;;;;;;;;;;;;;27.78;48.11;100056.41;1086688;47;20830;-81
2023/09/10 09:07:57;;;;;;;;;;;;;;;27.71;48.18;100057.47;1086080;54;19958;-81
2023/09/10 09:08:59;;;;;;;;;;;;;;;27.80;48.10;100063.31;1085874;54;20066;-81
2023/09/10 09:10:05;;;;;;;;;;;;;;;27.80;47.80;100060.56;1087218;47;19943;-83
2023/09/10 09:11:06;;;;;;;;;;;;;;;28.11;47.40;100057.28;1087221;47;20019;-82
2023/09/10 09:12:11;;;;;;;;;;;;;;;28.06;47.11;100055.28;1087175;47;19956;-83
2023/09/10 09:13:12;;;;;;;;;;;;;;;28.11;46.94;100054.53;1087208;47;19942;-82
2023/09/10 09:14:17;;;;;;;;;;;;;;;28.31;46.78;100053.91;1087171;54;20015;-80
2023/09/10 09:15:18;;;;;;;;;;;;;;;28.28;46.38;100059.91;1087187;47;21003;-82
2023/09/10 09:16:22;;;;;;;;;;;;;;;28.28;46.39;100055.25;1087151;47;19950;-82
2023/09/10 09:17:23;;;;;;;;;;;;;;;28.09;46.16;100052.06;1087079;54;20049;-84
2023/09/10 09:18:26;;;;;;;;;;;;;;;27.75;46.80;100060.53;1087027;54;19943;-83
2023/09/10 09:19:30;;;;;;;;;;;;;;;27.74;47.14;100056.13;1087135;54;19943;-83
2023/09/10 09:20:34;;;;;;;;;;;;;;;28.02;46.41;100054.19;1087124;54;19942;-83
2023/09/10 09:21:39;;;;;;;;;;;;;;;28.14;46.64;100054.03;1088097;39;20979;-82
2023/09/10 09:22:43;;;;;;;;;;;;;;;28.16;46.20;100046.38;1087215;47;19943;-83
2023/09/10 09:23:46;;;;;;;;;;;;;;;28.38;46.08;100051.75;1087185;54;19942;-82
2023/09/10 09:24:49;;;;;;;;;;;;;;;28.39;46.04;100049.81;1087123;54;19943;-82
2023/09/10 09:25:51;;;;;;;;;;;;;;;28.53;45.88;100051.03;1087450;39;20490;-83
2023/09/10 09:26:55;;;;;;;;;;;;;;;28.79;45.06;100053.97;1087064;54;19969;-82
2023/09/10 09:27:57;;;;;;;;;;;;;;;28.92;45.34;100047.16;1087153;54;20070;-83
2023/09/10 09:29:00;;;;;;;;;;;;;;;29.14;45.11;100048.91;1087061;54;19950;-83
2023/09/10 09:30:05;;;;;;;;;;;;;;;29.36;44.88;100046.84;1087150;47;19942;-83
2023/09/10 09:31:09;;;;;;;;;;;;;;;29.34;44.45;100046.28;1087801;46;19958;-83
2023/09/10 09:32:10;;;;;;;;;;;;;;;29.24;44.59;100040.69;1087070;47;20695;-82
2023/09/10 09:33:13;;;;;;;;;;;;;;;29.43;44.32;100041.06;1087059;47;19942;-82
2023/09/10 09:34:15;;;;;;;;;;;;;;;29.27;44.08;100038.22;1085909;47;19981;-79
2023/09/10 09:35:18;;;;;;;;;;;;;;;29.53;43.65;100040.28;1085841;47;19957;-80
2023/09/10 09:36:24;;;;;;;;;;;;;;;29.51;43.74;100037.78;1085668;54;19946;-80
2023/09/10 09:37:30;;;;;;;;;;;;;;;29.52;43.73;100038.59;1085994;47;19954;-79
2023/09/10 09:38:30;;;;;;;;;;;;;;;29.46;44.28;100035.00;1085403;47;19958;-80
2023/09/10 09:39:34;;;;;;;;;;;;;;;29.67;44.06;100030.38;1085740;54;19951;-80
2023/09/10 09:40:35;;;;;;;;;;;;;;;29.90;43.37;100033.72;1085513;54;20020;-79
2023/09/10 09:41:39;;;;;;;;;;;;;;;30.16;42.97;100023.56;1085002;47;19947;-80
2023/09/10 09:42:39;;;;;;;;;;;;;;;30.14;42.92;100022.16;1085011;54;19962;-79
2023/09/10 09:43:43;;;;;;;;;;;;;;;30.28;42.96;100023.28;1085732;47;19958;-80
2023/09/10 09:44:44;;;;;;;;;;;;;;;30.16;42.66;100028.22;1086030;39;20497;-81
2023/09/10 09:45:44;;;;;;;;;;;;;;;29.78;43.24;100030.38;1085566;54;19970;-80
2023/09/10 09:46:49;;;;;;;;;;;;;;;29.51;43.22;100031.44;1085100;47;19973;-79
2023/09/10 09:47:50;;;;;;;;;;;;;;;29.20;43.65;100020.31;1085305;54;19973;-80
2023/09/10 09:48:54;;;;;;;;;;;;;;;29.15;44.21;100028.56;1085192;47;21088;-83
2023/09/10 09:49:55;;;;;;;;;;;;;;;29.57;43.78;100019.34;1085628;47;19951;-80
2023/09/10 09:50:59;;;;;;;;;;;;;;;29.84;43.33;100012.78;1085557;47;19981;-80
2023/09/10 09:52:00;;;;;;;;;;;;;;;30.10;42.50;100002.59;1085868;54;19950;-80
2023/09/10 09:53:06;;;;;;;;;;;;;;;29.96;42.46;100004.28;1085693;47;20042;-80
2023/09/10 09:54:07;;;;;;;;;;;;;;;29.84;42.78;100007.28;1086109;54;20445;-80